This is the latest recevied weather packets stored in our database for station/object OE7DRT-13. If no packets are shown the sender has not sent any weather packets the latest 10 day(s).
| Time | Temp. | Humidity | Pressure | Rain* | Wind** | Luminosity | Snow |
|---|---|---|---|---|---|---|---|
| 1778368519 | 7.22° C | 79% | 1016.8 hPa | 0 mm | - | - | - |
| 1778366428 | 7.78° C | 76% | 1016.8 hPa | 0 mm | - | - | - |
| 1778362525 | 8.89° C | 71% | 1016.7 hPa | 0 mm | - | - | - |
| 1778361318 | 8.89° C | 71% | 1016.7 hPa | 0 mm | - | - | - |
| 1778359870 | 10.56° C | 66% | 1016.7 hPa | 0 mm | - | - | - |
| 1778358925 | 11.11° C | 62% | 1016.6 hPa | 0 mm | - | - | - |
| 1778355326 | 12.22° C | 60% | 1016.4 hPa | 0 mm | - | - | - |
| 1778353515 | 12.78° C | 58% | 1016.1 hPa | 0 mm | - | - | - |
| 1778352932 | 12.78° C | 58% | 1016 hPa | 0 mm | - | - | - |
| 1778351424 | 12.78° C | 59% | 1015.8 hPa | 0 mm | - | - | - |
| 1778349694 | 13.89° C | 60% | 1015.7 hPa | 0 mm | - | - | - |
| 1778348125 | 14.44° C | 51% | 1015.3 hPa | 0 mm | - | - | - |
| 1778346918 | 15° C | 51% | 1015 hPa | 0 mm | - | - | - |
| 1778346335 | 15.56° C | 49% | 1015 hPa | 0 mm | - | - | - |
| 1778344826 | 16.11° C | 46% | 1015.1 hPa | 0 mm | - | - | - |
| 1778344524 | 16.11° C | 47% | 1015.1 hPa | 0 mm | - | - | - |
| 1778342433 | 16.67° C | 45% | 1015.1 hPa | 0 mm | - | - | - |
| 1778342151 | 16.67° C | 44% | 1015.2 hPa | 0 mm | - | - | - |
| 1778340039 | 19.44° C | 38% | 1015.4 hPa | 0 mm | - | - | - |
| 1778337323 | 19.44° C | 40% | 1015.8 hPa | 0 mm | - | - | - |
| 1778336720 | 19.44° C | 39% | 1015.8 hPa | 0 mm | - | - | - |
| 1778336137 | 18.33° C | 39% | 1016 hPa | 0 mm | - | - | - |
| 1778335553 | 16.67° C | 42% | 1016.2 hPa | 0 mm | - | - | - |
| 1778334628 | 17.78° C | 40% | 1016.3 hPa | 0 mm | - | - | - |
| 1778333723 | 18.33° C | 38% | 1016.3 hPa | 0 mm | - | - | - |
* Rain latest hour (hover to see other rain measurements)
** Current wind speed in m/s (hover to see current wind gust speed)